Time;durP1;ratioP1;P1;durP2;ratioP2;P2;SDS_P1;SDS_P2;PMS_P1;PMS_P2;Temp;Humidity;BMP_temperature;BMP_pressure;BME280_temperature;BME280_humidity;BME280_pressure;Samples;Min_cycle;Max_cycle;Signal;HPM_P1;HPM_P2
2023/06/16 00:01:22;;;;;;;8.50;5.78;;;15.40;99.90;;;;;;5042655;28;20025;-65
2023/06/16 00:03:49;;;;;;;12.57;5.85;;;15.40;99.90;;;;;;5037393;28;20535;-65
2023/06/16 00:06:16;;;;;;;8.80;5.38;;;15.40;99.90;;;;;;5044675;28;20037;-64
2023/06/16 00:08:44;;;;;;;11.07;6.03;;;15.40;99.90;;;;;;5042722;28;20032;-65
2023/06/16 00:11:11;;;;;;;12.82;6.40;;;15.50;99.90;;;;;;5036716;28;20017;-64
2023/06/16 00:13:37;;;;;;;7.60;5.60;;;15.40;99.90;;;;;;5041990;28;20428;-66
2023/06/16 00:16:02;;;;;;;15.00;6.22;;;15.40;99.90;;;;;;5048184;28;20063;-65
2023/06/16 00:18:29;;;;;;;18.77;6.43;;;15.30;99.90;;;;;;5045468;28;20442;-65
2023/06/16 00:20:55;;;;;;;11.73;5.60;;;15.40;99.90;;;;;;5040720;28;20049;-65
2023/06/16 00:23:22;;;;;;;10.40;5.63;;;15.40;99.90;;;;;;5040051;28;20025;-65
2023/06/16 00:25:48;;;;;;;8.93;5.93;;;15.40;99.90;;;;;;5037276;28;20033;-65
2023/06/16 00:28:14;;;;;;;11.48;5.25;;;15.50;99.90;;;;;;5040064;28;20025;-65
2023/06/16 00:30:39;;;;;;;10.85;5.30;;;15.50;99.90;;;;;;5039331;28;20064;-65
2023/06/16 00:33:05;;;;;;;11.43;5.65;;;15.60;99.90;;;;;;5039646;28;20035;-65
2023/06/16 00:35:31;;;;;;;12.68;5.88;;;15.70;99.90;;;;;;5041862;28;20036;-65
2023/06/16 00:37:57;;;;;;;10.27;5.75;;;15.80;99.90;;;;;;5037360;28;20132;-64
2023/06/16 00:40:22;;;;;;;10.63;6.15;;;15.90;99.90;;;;;;5040947;28;20066;-65
2023/06/16 00:42:48;;;;;;;14.15;5.53;;;15.90;99.90;;;;;;5042305;28;20033;-64
2023/06/16 00:45:13;;;;;;;11.40;5.55;;;15.90;99.90;;;;;;5037416;28;20140;-65
2023/06/16 00:47:39;;;;;;;10.15;5.30;;;15.80;99.90;;;;;;5040697;28;20044;-65
2023/06/16 00:50:07;;;;;;;11.90;5.47;;;15.80;99.90;;;;;;5043914;28;20025;-65
2023/06/16 00:52:36;;;;;;;9.65;5.82;;;15.70;99.90;;;;;;5044433;28;20170;-65
2023/06/16 00:55:02;;;;;;;17.75;6.20;;;15.50;99.90;;;;;;5037925;28;20086;-65
2023/06/16 00:57:29;;;;;;;17.42;6.53;;;15.40;99.90;;;;;;5039813;28;20025;-65
2023/06/16 00:59:55;;;;;;;11.15;5.53;;;15.30;99.90;;;;;;5035535;28;20086;-65
2023/06/16 01:02:20;;;;;;;13.18;6.30;;;15.30;99.90;;;;;;5039745;28;20033;-64
2023/06/16 01:04:48;;;;;;;10.32;5.80;;;15.20;99.90;;;;;;5043340;28;20024;-65
2023/06/16 01:07:28;;;;;;;10.40;5.97;;;15.10;99.90;;;;;;5036795;28;20029;-64
2023/06/16 01:10:26;;;;;;;15.07;6.15;;;15.00;99.90;;;;;;5038971;28;20337;-65
2023/06/16 01:13:10;;;;;;;14.18;6.45;;;15.10;99.90;;;;;;5036341;28;20608;-66
2023/06/16 01:15:39;;;;;;;13.93;6.33;;;15.00;99.90;;;;;;5039948;28;20021;-65
2023/06/16 01:18:07;;;;;;;16.77;6.35;;;15.00;99.90;;;;;;5044089;28;20283;-65
2023/06/16 01:21:01;;;;;;;12.43;5.80;;;15.00;99.90;;;;;;5040821;28;20083;-65
2023/06/16 01:24:01;;;;;;;9.63;6.13;;;14.90;99.90;;;;;;5041092;28;20045;-65
2023/06/16 01:26:29;;;;;;;8.82;5.75;;;14.90;99.90;;;;;;5038623;28;20037;-66
2023/06/16 01:28:56;;;;;;;20.85;7.63;;;14.90;99.90;;;;;;5038015;28;20561;-65
2023/06/16 01:31:23;;;;;;;10.70;6.20;;;14.80;99.90;;;;;;5041031;28;21923;-65
2023/06/16 01:33:50;;;;;;;9.88;5.95;;;14.70;99.90;;;;;;5039775;28;20495;-65
2023/06/16 01:36:17;;;;;;;9.00;5.90;;;14.70;99.90;;;;;;5038002;28;20065;-65
2023/06/16 01:38:43;;;;;;;13.25;6.45;;;14.60;99.90;;;;;;5045788;28;20029;-66
2023/06/16 01:41:10;;;;;;;12.90;6.55;;;14.50;99.90;;;;;;5039739;28;20060;-64
2023/06/16 01:43:36;;;;;;;12.57;6.70;;;14.50;99.90;;;;;;5038777;28;20105;-64
2023/06/16 01:46:02;;;;;;;12.73;6.00;;;14.40;99.90;;;;;;5045775;28;20043;-66
2023/06/16 01:48:28;;;;;;;11.65;6.68;;;14.40;99.90;;;;;;5047121;28;20120;-64
2023/06/16 01:50:54;;;;;;;13.60;6.97;;;14.40;99.90;;;;;;5039899;28;20086;-65
2023/06/16 01:53:20;;;;;;;13.32;6.32;;;14.30;99.90;;;;;;5036552;28;20577;-65
2023/06/16 01:55:47;;;;;;;10.50;6.60;;;14.30;99.90;;;;;;5033722;28;20026;-65
2023/06/16 01:58:13;;;;;;;8.23;5.72;;;14.20;99.90;;;;;;5039334;28;20025;-64
2023/06/16 02:00:46;;;;;;;11.32;6.07;;;14.20;99.90;;;;;;5037855;28;20044;-65
2023/06/16 02:03:25;;;;;;;12.45;6.60;;;14.10;99.90;;;;;;5039130;28;20034;-64
2023/06/16 02:05:53;;;;;;;14.50;6.82;;;14.10;99.90;;;;;;5040161;28;20368;-65
2023/06/16 02:08:22;;;;;;;11.30;6.97;;;14.00;99.90;;;;;;5043460;28;20033;-62
2023/06/16 02:10:48;;;;;;;12.20;6.10;;;14.00;99.90;;;;;;5036686;28;20407;-65
2023/06/16 02:13:14;;;;;;;12.13;7.07;;;13.90;99.90;;;;;;5040625;28;20041;-65
2023/06/16 02:15:40;;;;;;;10.02;6.22;;;13.90;99.90;;;;;;5037043;28;20909;-65
2023/06/16 02:18:09;;;;;;;10.70;7.32;;;14.00;99.90;;;;;;5038542;28;20029;-65
2023/06/16 02:20:35;;;;;;;10.93;6.47;;;13.90;99.90;;;;;;5043974;28;20056;-65
2023/06/16 02:23:01;;;;;;;11.65;6.22;;;13.80;99.90;;;;;;5043972;28;20353;-65
2023/06/16 02:25:26;;;;;;;9.88;6.65;;;13.80;99.90;;;;;;5047870;28;20044;-64
2023/06/16 02:27:52;;;;;;;12.15;6.78;;;13.70;99.90;;;;;;5042604;28;20034;-65
2023/06/16 02:30:17;;;;;;;12.43;6.28;;;13.80;99.90;;;;;;5039491;28;20087;-65
2023/06/16 02:32:43;;;;;;;14.68;7.10;;;13.70;99.90;;;;;;5040485;28;20036;-65
2023/06/16 02:35:09;;;;;;;13.20;6.65;;;13.80;99.90;;;;;;5038390;28;20585;-65
2023/06/16 02:37:36;;;;;;;13.50;6.68;;;13.70;99.90;;;;;;5046204;28;20120;-65
2023/06/16 02:40:04;;;;;;;11.80;6.78;;;13.70;99.90;;;;;;5046849;28;20037;-64
2023/06/16 02:42:30;;;;;;;10.25;6.88;;;13.60;99.90;;;;;;5041902;28;20018;-65
2023/06/16 02:44:55;;;;;;;15.02;6.78;;;13.60;99.90;;;;;;5039473;28;20130;-65
2023/06/16 02:47:21;;;;;;;15.52;7.10;;;13.60;99.90;;;;;;5043742;28;20053;-65
2023/06/16 02:49:46;;;;;;;10.55;6.28;;;13.60;99.90;;;;;;5041100;28;20026;-64
2023/06/16 02:52:12;;;;;;;24.27;6.38;;;13.60;99.90;;;;;;5041071;28;20025;-65
2023/06/16 02:54:39;;;;;;;13.98;7.10;;;13.40;99.90;;;;;;5042314;28;20048;-64
2023/06/16 02:57:05;;;;;;;13.00;6.85;;;13.50;99.90;;;;;;5038436;28;20025;-64
2023/06/16 02:59:31;;;;;;;11.30;6.50;;;13.40;99.90;;;;;;5039871;28;20025;-65
2023/06/16 03:01:56;;;;;;;9.90;6.93;;;13.40;99.90;;;;;;5034615;28;20041;-65
2023/06/16 03:04:22;;;;;;;13.18;7.00;;;13.40;99.90;;;;;;5041360;28;20065;-64
2023/06/16 03:06:47;;;;;;;14.27;7.38;;;13.40;99.90;;;;;;5036093;28;20021;-63
2023/06/16 03:09:13;;;;;;;13.48;8.05;;;13.30;99.90;;;;;;5044500;28;20022;-64
2023/06/16 03:11:38;;;;;;;15.25;7.10;;;13.40;99.90;;;;;;5040036;28;20497;-64
2023/06/16 03:14:04;;;;;;;12.68;6.93;;;13.40;99.90;;;;;;5045121;28;20513;-64
2023/06/16 03:16:31;;;;;;;10.98;7.10;;;13.20;99.90;;;;;;5045204;28;20021;-64
2023/06/16 03:18:56;;;;;;;13.20;6.40;;;13.30;99.90;;;;;;5038139;28;20458;-64
2023/06/16 03:21:22;;;;;;;11.68;6.93;;;13.20;99.90;;;;;;5037321;28;20029;-64
2023/06/16 03:23:48;;;;;;;13.13;6.95;;;13.20;99.90;;;;;;5039837;28;20036;-65
2023/06/16 03:26:13;;;;;;;10.77;6.28;;;13.20;99.90;;;;;;5043676;28;20024;-64
2023/06/16 03:28:40;;;;;;;11.07;6.30;;;13.20;99.90;;;;;;5039859;28;20029;-65
2023/06/16 03:31:05;;;;;;;12.48;6.85;;;13.20;99.90;;;;;;5040366;28;20104;-65
2023/06/16 03:33:31;;;;;;;13.63;7.13;;;13.20;99.90;;;;;;5044209;28;20121;-64
2023/06/16 03:35:57;;;;;;;10.15;6.93;;;13.20;99.90;;;;;;5036303;28;20021;-65
2023/06/16 03:38:23;;;;;;;11.60;7.00;;;13.20;99.90;;;;;;5044558;28;20444;-65
2023/06/16 03:40:48;;;;;;;11.15;7.88;;;13.10;99.90;;;;;;5050387;28;20084;-64
2023/06/16 03:43:14;;;;;;;15.23;6.75;;;13.10;99.90;;;;;;5041907;28;20052;-65
2023/06/16 03:45:39;;;;;;;11.77;7.03;;;13.10;99.90;;;;;;5036018;28;20411;-65
2023/06/16 03:48:05;;;;;;;9.90;6.95;;;13.20;99.90;;;;;;5049616;28;20031;-66
2023/06/16 03:50:31;;;;;;;10.77;6.47;;;13.20;99.90;;;;;;5043044;28;20561;-65
2023/06/16 03:52:57;;;;;;;16.48;7.35;;;13.10;99.90;;;;;;5047232;28;20025;-65
2023/06/16 03:55:23;;;;;;;15.70;7.18;;;13.10;99.90;;;;;;5041432;28;20039;-65
2023/06/16 03:57:48;;;;;;;12.90;7.05;;;13.10;99.90;;;;;;5040938;28;20391;-65
2023/06/16 04:00:14;;;;;;;11.35;7.32;;;13.10;99.90;;;;;;5042871;28;20032;-62
2023/06/16 04:02:41;;;;;;;10.00;7.32;;;13.10;99.90;;;;;;5046727;28;20028;-65
2023/06/16 04:05:08;;;;;;;15.07;6.85;;;13.10;99.90;;;;;;5037137;28;20036;-65
2023/06/16 04:07:34;;;;;;;9.65;6.55;;;13.20;99.90;;;;;;5041806;28;20087;-64
2023/06/16 04:09:59;;;;;;;12.23;6.63;;;13.20;99.90;;;;;;5034679;28;20024;-65
2023/06/16 04:12:25;;;;;;;13.13;6.85;;;13.20;99.90;;;;;;5035549;28;20025;-64
2023/06/16 04:14:51;;;;;;;17.67;7.35;;;13.30;99.90;;;;;;5037552;28;20056;-65
2023/06/16 04:17:16;;;;;;;11.60;7.07;;;13.30;99.90;;;;;;5038450;28;20454;-64
2023/06/16 04:19:43;;;;;;;11.10;6.60;;;13.30;99.90;;;;;;5044005;28;20029;-65
2023/06/16 04:22:08;;;;;;;13.80;6.72;;;13.30;99.90;;;;;;5028610;28;20021;-65
2023/06/16 04:24:34;;;;;;;17.02;7.65;;;13.40;99.90;;;;;;5040193;28;20036;-64
2023/06/16 04:27:02;;;;;;;13.88;7.45;;;13.40;99.90;;;;;;5042718;28;20525;-64
2023/06/16 04:29:28;;;;;;;14.30;7.05;;;13.40;99.90;;;;;;5042176;28;20099;-65
2023/06/16 04:31:59;;;;;;;14.85;6.40;;;13.50;99.90;;;;;;5037287;28;20468;-65
2023/06/16 04:34:25;;;;;;;15.27;7.70;;;13.50;99.90;;;;;;5043231;28;20725;-64
2023/06/16 04:36:51;;;;;;;15.30;7.85;;;13.50;99.90;;;;;;5038113;28;20479;-65
2023/06/16 04:39:16;;;;;;;13.45;7.20;;;13.50;99.90;;;;;;5034078;28;20028;-65
2023/06/16 04:41:43;;;;;;;13.73;7.32;;;13.60;99.90;;;;;;5040563;28;20060;-65
2023/06/16 04:44:09;;;;;;;12.15;6.68;;;13.60;99.90;;;;;;5040991;28;20014;-65
2023/06/16 04:46:34;;;;;;;15.35;7.55;;;13.70;99.90;;;;;;5037978;28;20396;-64
2023/06/16 04:49:00;;;;;;;15.63;7.38;;;13.70;99.90;;;;;;5044665;28;20025;-64
2023/06/16 04:51:26;;;;;;;15.25;7.80;;;13.80;99.90;;;;;;5033818;28;20033;-65
2023/06/16 04:53:53;;;;;;;15.02;7.60;;;13.90;99.90;;;;;;5033612;28;20106;-64
2023/06/16 04:56:19;;;;;;;15.88;6.70;;;13.90;99.90;;;;;;5036724;28;20136;-64
2023/06/16 04:58:44;;;;;;;11.15;6.82;;;14.00;99.90;;;;;;5035786;28;20112;-65
2023/06/16 05:01:11;;;;;;;13.90;7.40;;;14.00;99.90;;;;;;5035489;28;20679;-65
2023/06/16 05:03:37;;;;;;;14.18;7.90;;;14.10;99.90;;;;;;5041253;28;20041;-66
2023/06/16 05:06:03;;;;;;;14.05;7.78;;;14.20;99.90;;;;;;5042111;28;20048;-65
2023/06/16 05:08:29;;;;;;;15.02;7.05;;;14.30;99.90;;;;;;5035879;28;20036;-65
2023/06/16 05:10:54;;;;;;;12.00;7.93;;;14.30;99.90;;;;;;5036121;28;20087;-65
2023/06/16 05:13:20;;;;;;;13.25;7.32;;;14.40;99.90;;;;;;5038240;28;20029;-66
2023/06/16 05:15:45;;;;;;;12.18;6.88;;;14.50;99.90;;;;;;5030567;28;20040;-65
2023/06/16 05:18:11;;;;;;;15.43;7.93;;;14.60;99.90;;;;;;5044888;28;20502;-62
2023/06/16 05:20:36;;;;;;;19.40;8.40;;;14.60;99.90;;;;;;5046636;28;20514;-62
2023/06/16 05:23:03;;;;;;;16.27;8.30;;;14.70;99.90;;;;;;5036561;28;20075;-64
2023/06/16 05:25:31;;;;;;;15.02;7.57;;;14.80;99.90;;;;;;5037979;28;20097;-64
2023/06/16 05:27:57;;;;;;;20.65;7.65;;;14.90;99.90;;;;;;5038513;28;20063;-63
2023/06/16 05:30:22;;;;;;;14.30;7.82;;;14.90;99.90;;;;;;5032825;28;20068;-63
2023/06/16 05:32:48;;;;;;;18.88;7.55;;;15.00;99.90;;;;;;5043836;28;20029;-63
2023/06/16 05:35:14;;;;;;;15.93;7.45;;;15.10;99.90;;;;;;5037453;28;20029;-63
2023/06/16 05:37:39;;;;;;;15.68;8.48;;;15.20;99.90;;;;;;5036749;28;20131;-62
2023/06/16 05:40:05;;;;;;;21.80;8.23;;;15.30;99.90;;;;;;5034620;28;20041;-63
2023/06/16 05:42:31;;;;;;;19.23;9.70;;;15.50;99.90;;;;;;5042792;28;20415;-62
2023/06/16 05:44:57;;;;;;;21.13;8.82;;;15.70;99.90;;;;;;5030303;28;20026;-63
2023/06/16 05:47:22;;;;;;;24.88;8.13;;;15.80;99.90;;;;;;5041713;28;20037;-62
2023/06/16 05:49:48;;;;;;;20.27;8.48;;;15.90;99.90;;;;;;5043592;28;20028;-62
2023/06/16 05:52:13;;;;;;;18.73;8.10;;;16.00;99.90;;;;;;5043062;28;20584;-61
2023/06/16 05:54:39;;;;;;;25.10;8.10;;;16.10;99.90;;;;;;5038892;28;20056;-63
2023/06/16 05:57:04;;;;;;;18.48;8.20;;;16.20;99.90;;;;;;5044787;28;20156;-63
2023/06/16 05:59:30;;;;;;;14.95;7.25;;;16.30;99.90;;;;;;5043628;28;20025;-61
2023/06/16 06:01:55;;;;;;;23.27;8.00;;;16.40;99.90;;;;;;5041726;28;20021;-63
2023/06/16 06:04:27;;;;;;;16.73;7.53;;;16.40;99.90;;;;;;5042407;28;20099;-62
2023/06/16 06:06:53;;;;;;;17.85;6.50;;;16.50;99.90;;;;;;5033689;28;20881;-60
2023/06/16 06:09:19;;;;;;;13.68;6.95;;;16.50;99.90;;;;;;5045242;28;20451;-63
2023/06/16 06:11:45;;;;;;;11.45;6.70;;;16.50;99.90;;;;;;5041497;28;20037;-62
2023/06/16 06:14:11;;;;;;;15.85;6.70;;;16.60;99.90;;;;;;5036593;28;20387;-61
2023/06/16 06:16:39;;;;;;;21.20;10.38;;;16.60;99.90;;;;;;5037684;28;20022;-63
2023/06/16 06:19:05;;;;;;;19.75;7.95;;;16.70;99.90;;;;;;5040998;28;20137;-63
2023/06/16 06:21:32;;;;;;;12.50;6.55;;;16.90;99.90;;;;;;5046208;28;20113;-62
2023/06/16 06:23:57;;;;;;;11.50;5.75;;;17.00;99.90;;;;;;5054594;28;20056;-63
2023/06/16 06:26:23;;;;;;;14.63;6.80;;;17.00;99.90;;;;;;5047654;28;21022;-61
2023/06/16 06:28:49;;;;;;;15.60;6.50;;;17.10;99.90;;;;;;5040863;28;20384;-63
2023/06/16 06:31:15;;;;;;;15.52;6.97;;;17.20;99.90;;;;;;5042196;28;20105;-63
2023/06/16 06:33:41;;;;;;;18.55;7.32;;;17.30;99.90;;;;;;5046783;28;20099;-63
2023/06/16 06:36:06;;;;;;;12.75;5.70;;;17.50;99.90;;;;;;5047306;28;20132;-63
2023/06/16 06:38:32;;;;;;;11.55;5.03;;;17.50;99.90;;;;;;5044957;28;20087;-62
2023/06/16 06:40:57;;;;;;;11.13;5.32;;;17.60;99.90;;;;;;5046650;28;20037;-62
2023/06/16 06:43:25;;;;;;;12.40;5.70;;;17.70;99.90;;;;;;5037990;28;20079;-63
2023/06/16 06:45:50;;;;;;;13.10;6.18;;;17.70;99.90;;;;;;5038643;28;20029;-62
2023/06/16 06:48:17;;;;;;;17.23;6.30;;;17.80;99.90;;;;;;5045141;28;20025;-64
2023/06/16 06:50:43;;;;;;;17.42;6.10;;;17.80;99.90;;;;;;5040312;28;20040;-63
2023/06/16 06:53:08;;;;;;;17.67;7.05;;;17.90;99.90;;;;;;5044274;28;20025;-62
2023/06/16 06:55:34;;;;;;;15.38;6.47;;;18.00;99.90;;;;;;5037222;28;20043;-63
2023/06/16 06:58:00;;;;;;;13.40;6.03;;;18.20;99.90;;;;;;5037866;28;20036;-63
2023/06/16 07:00:25;;;;;;;12.32;5.13;;;18.30;99.90;;;;;;5038954;28;21406;-62
2023/06/16 07:02:51;;;;;;;10.90;5.28;;;18.40;99.90;;;;;;5050684;28;20038;-63
2023/06/16 07:05:16;;;;;;;9.75;4.85;;;18.60;99.90;;;;;;5048508;28;20025;-62
2023/06/16 07:07:42;;;;;;;13.40;6.65;;;18.70;99.90;;;;;;5042251;28;20041;-62
2023/06/16 07:10:08;;;;;;;13.23;5.88;;;18.80;99.90;;;;;;5041736;28;20032;-63
2023/06/16 07:12:34;;;;;;;13.82;5.65;;;18.80;99.90;;;;;;5037575;28;20021;-62
2023/06/16 07:14:59;;;;;;;9.02;5.03;;;18.80;99.90;;;;;;5038461;28;20033;-63
2023/06/16 07:17:25;;;;;;;13.02;5.57;;;18.90;99.90;;;;;;5045355;28;20072;-63
2023/06/16 07:19:50;;;;;;;9.45;5.32;;;19.00;99.90;;;;;;5039527;28;20032;-63
2023/06/16 07:22:16;;;;;;;18.48;5.82;;;19.10;99.90;;;;;;5039721;28;20032;-62
2023/06/16 07:24:42;;;;;;;11.25;6.30;;;19.10;99.90;;;;;;5039334;28;20028;-62
2023/06/16 07:27:08;;;;;;;10.68;6.05;;;19.20;99.90;;;;;;5040265;28;20391;-63
2023/06/16 07:29:34;;;;;;;14.40;5.53;;;19.20;99.90;;;;;;5040589;28;20542;-62
2023/06/16 07:32:00;;;;;;;14.90;6.03;;;19.30;99.90;;;;;;5043630;28;20098;-63
2023/06/16 07:34:26;;;;;;;12.63;4.25;;;19.50;99.90;;;;;;5044233;28;20486;-63
2023/06/16 07:36:51;;;;;;;8.60;5.53;;;19.50;99.90;;;;;;5052526;28;20112;-63
2023/06/16 07:39:17;;;;;;;8.30;5.13;;;19.60;99.90;;;;;;5042048;28;20035;-63
2023/06/16 07:41:43;;;;;;;10.82;4.50;;;19.60;99.90;;;;;;5045408;28;20056;-63
2023/06/16 07:44:09;;;;;;;6.78;4.70;;;19.80;99.90;;;;;;5040750;28;20488;-63
2023/06/16 07:46:34;;;;;;;11.70;5.22;;;19.90;99.90;;;;;;5043583;28;20021;-63
2023/06/16 07:49:00;;;;;;;12.48;6.03;;;20.00;99.90;;;;;;5039338;28;20037;-63
2023/06/16 07:51:26;;;;;;;16.13;5.10;;;20.10;99.90;;;;;;5043896;28;20035;-63
2023/06/16 07:53:52;;;;;;;11.77;5.00;;;20.20;99.90;;;;;;5039931;28;20466;-63
2023/06/16 07:56:18;;;;;;;11.23;5.28;;;20.20;99.90;;;;;;5041898;28;20025;-63
2023/06/16 07:58:44;;;;;;;7.40;5.60;;;20.30;99.90;;;;;;5039784;28;20051;-64
2023/06/16 08:01:10;;;;;;;18.40;5.38;;;20.40;99.90;;;;;;5038990;28;20432;-62
2023/06/16 08:03:36;;;;;;;10.55;5.30;;;20.50;99.90;;;;;;5042736;28;20035;-62
2023/06/16 08:06:03;;;;;;;12.77;5.22;;;20.60;99.90;;;;;;5039300;28;20055;-63
2023/06/16 08:08:29;;;;;;;13.45;4.88;;;20.70;99.90;;;;;;5040852;28;20020;-62
2023/06/16 08:10:58;;;;;;;11.00;5.00;;;20.80;99.90;;;;;;5043251;28;20376;-63
2023/06/16 08:13:24;;;;;;;9.13;4.95;;;20.90;99.90;;;;;;5040925;28;20529;-63
2023/06/16 08:15:50;;;;;;;13.10;5.22;;;21.00;99.90;;;;;;5041685;28;20665;-64
2023/06/16 08:18:17;;;;;;;9.32;5.10;;;21.00;99.90;;;;;;5038203;28;20037;-64
2023/06/16 08:20:46;;;;;;;9.15;5.45;;;21.10;99.90;;;;;;5037595;28;20139;-63
2023/06/16 08:23:12;;;;;;;14.88;5.30;;;21.20;99.90;;;;;;5046023;28;20025;-63
2023/06/16 08:25:38;;;;;;;13.48;5.50;;;21.20;99.90;;;;;;5041374;28;20108;-63
2023/06/16 08:28:07;;;;;;;9.55;5.28;;;21.20;99.90;;;;;;5038101;28;20029;-64
2023/06/16 08:30:32;;;;;;;14.88;4.95;;;21.30;99.90;;;;;;5042129;28;20037;-65
2023/06/16 08:32:58;;;;;;;14.27;5.00;;;21.20;99.90;;;;;;5041851;28;20029;-64
2023/06/16 08:35:24;;;;;;;14.50;5.38;;;21.10;99.90;;;;;;5042992;28;20021;-65
2023/06/16 08:37:50;;;;;;;13.88;5.57;;;21.00;99.90;;;;;;5037883;28;20029;-64
2023/06/16 08:40:16;;;;;;;16.02;5.05;;;21.00;99.90;;;;;;5038406;28;20510;-65
2023/06/16 08:42:43;;;;;;;23.80;5.55;;;20.90;99.90;;;;;;5041804;28;20032;-65
2023/06/16 08:45:10;;;;;;;37.05;5.57;;;20.90;99.90;;;;;;5035781;28;20032;-64
2023/06/16 08:47:39;;;;;;;12.68;5.10;;;21.00;99.90;;;;;;5040799;28;20053;-64
2023/06/16 08:50:08;;;;;;;13.93;4.68;;;20.90;99.90;;;;;;5037484;28;20095;-64
2023/06/16 08:52:42;;;;;;;11.23;4.45;;;20.90;99.90;;;;;;5038074;28;20071;-65
2023/06/16 08:55:16;;;;;;;12.32;4.53;;;21.00;99.90;;;;;;5034052;28;20021;-63
2023/06/16 08:57:47;;;;;;;11.93;4.30;;;21.20;99.90;;;;;;5034952;28;20029;-63
2023/06/16 09:00:17;;;;;;;11.50;4.50;;;21.40;99.90;;;;;;5044465;28;20020;-61
2023/06/16 09:02:48;;;;;;;11.05;3.95;;;21.70;99.90;;;;;;5044205;28;20155;-63
2023/06/16 09:05:15;;;;;;;5.72;4.03;;;21.70;99.90;;;;;;5038813;28;20067;-63
2023/06/16 09:07:41;;;;;;;13.75;4.10;;;21.90;99.90;;;;;;5039183;28;20040;-64
2023/06/16 09:10:10;;;;;;;13.30;5.38;;;22.00;99.90;;;;;;5039303;28;20089;-64
2023/06/16 09:12:36;;;;;;;9.35;4.57;;;22.20;99.90;;;;;;5037501;28;20025;-64
2023/06/16 09:15:06;;;;;;;9.63;3.75;;;22.30;99.90;;;;;;5035412;28;20502;-62
2023/06/16 09:17:33;;;;;;;9.65;4.57;;;22.40;99.90;;;;;;5033547;28;20060;-63
2023/06/16 09:20:00;;;;;;;8.65;4.32;;;22.50;99.90;;;;;;5033613;28;20025;-64
2023/06/16 09:22:26;;;;;;;8.30;4.60;;;22.70;99.90;;;;;;5042240;28;20026;-65
2023/06/16 09:24:59;;;;;;;9.32;4.70;;;22.90;99.90;;;;;;5046931;28;20029;-64
2023/06/16 09:27:43;;;;;;;8.90;4.43;;;23.00;99.90;;;;;;5040168;28;20843;-64
2023/06/16 09:30:10;;;;;;;10.00;4.93;;;23.10;99.90;;;;;;5041382;28;20472;-65
2023/06/16 09:32:39;;;;;;;9.90;5.10;;;23.20;99.60;;;;;;5039499;28;20037;-64
2023/06/16 09:35:23;;;;;;;10.95;4.25;;;23.20;99.70;;;;;;5047568;28;20721;-64
2023/06/16 09:37:52;;;;;;;10.68;3.88;;;23.20;96.50;;;;;;5043028;28;20034;-63
2023/06/16 09:40:20;;;;;;;8.30;4.72;;;23.30;99.40;;;;;;5039089;28;20041;-64
2023/06/16 09:42:47;;;;;;;9.00;4.13;;;23.40;95.50;;;;;;5045184;28;20079;-63
2023/06/16 09:45:14;;;;;;;13.23;3.72;;;23.50;94.00;;;;;;5044267;28;20025;-64
2023/06/16 09:47:45;;;;;;;5.80;3.83;;;23.60;93.40;;;;;;5045063;28;20043;-63
2023/06/16 09:50:18;;;;;;;11.15;4.25;;;23.70;92.40;;;;;;5043526;28;20090;-64
2023/06/16 09:52:45;;;;;;;6.65;3.88;;;23.80;91.50;;;;;;5042159;28;20071;-63
2023/06/16 09:55:12;;;;;;;6.78;3.58;;;23.90;90.40;;;;;;5044295;28;20021;-63
2023/06/16 09:57:39;;;;;;;5.07;3.60;;;23.90;89.00;;;;;;5037995;28;20028;-63
2023/06/16 10:00:09;;;;;;;7.93;4.30;;;24.20;90.00;;;;;;5039856;28;20096;-65
2023/06/16 10:02:36;;;;;;;5.72;3.58;;;24.40;87.70;;;;;;5045091;28;20062;-64
2023/06/16 10:05:06;;;;;;;7.28;3.80;;;24.60;87.70;;;;;;5041913;28;20029;-64
2023/06/16 10:07:32;;;;;;;5.75;4.00;;;24.70;85.60;;;;;;5041530;28;20087;-64
2023/06/16 10:10:00;;;;;;;6.13;3.85;;;24.70;83.40;;;;;;5037360;28;20638;-64
2023/06/16 10:12:27;;;;;;;6.35;3.42;;;24.70;83.30;;;;;;5044942;28;20051;-65
2023/06/16 10:14:54;;;;;;;10.65;4.43;;;25.00;83.40;;;;;;5036382;28;20033;-66
2023/06/16 10:17:20;;;;;;;7.90;3.63;;;25.10;80.90;;;;;;5038751;28;20047;-64
2023/06/16 10:19:50;;;;;;;8.32;4.22;;;24.90;83.40;;;;;;5041990;28;20068;-63
2023/06/16 10:22:16;;;;;;;6.78;3.25;;;25.10;80.20;;;;;;5043459;28;20026;-64
2023/06/16 10:24:42;;;;;;;5.10;3.60;;;25.40;81.10;;;;;;5040100;28;20029;-65
2023/06/16 10:27:10;;;;;;;7.60;4.03;;;25.60;78.80;;;;;;5041749;28;20055;-65
2023/06/16 10:29:38;;;;;;;9.10;3.97;;;25.90;78.20;;;;;;5037918;28;20051;-65
2023/06/16 10:32:07;;;;;;;6.50;3.70;;;26.00;76.50;;;;;;5044779;28;20488;-65
2023/06/16 10:34:49;;;;;;;11.63;4.07;;;25.80;75.10;;;;;;5035334;28;20517;-64
2023/06/16 10:37:15;;;;;;;6.40;3.97;;;25.80;76.10;;;;;;5044728;28;20020;-65
2023/06/16 10:39:45;;;;;;;7.32;4.07;;;25.80;75.20;;;;;;5042885;28;20029;-64
2023/06/16 10:42:12;;;;;;;8.63;3.90;;;25.80;74.20;;;;;;5051410;28;20581;-64
2023/06/16 10:44:38;;;;;;;6.00;3.90;;;26.00;82.00;;;;;;5037136;28;20100;-64
2023/06/16 10:47:12;;;;;;;5.13;3.58;;;26.50;80.60;;;;;;5041070;28;20112;-65
2023/06/16 10:49:51;;;;;;;7.75;3.72;;;26.60;72.80;;;;;;5037244;28;20021;-65
2023/06/16 10:52:34;;;;;;;12.60;4.05;;;26.60;74.90;;;;;;5041980;28;20058;-66
2023/06/16 10:55:17;;;;;;;9.07;3.80;;;26.90;71.20;;;;;;5040543;28;20034;-64
2023/06/16 10:57:43;;;;;;;7.57;3.70;;;26.90;70.40;;;;;;5040330;28;20128;-64
2023/06/16 11:00:14;;;;;;;9.95;4.13;;;27.00;69.80;;;;;;5038718;28;20108;-63
2023/06/16 11:02:53;;;;;;;5.80;3.90;;;27.20;70.00;;;;;;5041295;28;20109;-65
2023/06/16 11:05:22;;;;;;;6.13;3.80;;;27.20;66.80;;;;;;5041962;28;20037;-63
2023/06/16 11:07:58;;;;;;;9.40;4.13;;;27.30;69.30;;;;;;5034327;28;20069;-63
2023/06/16 11:10:24;;;;;;;5.65;3.70;;;27.50;66.10;;;;;;5040494;28;20507;-63
2023/06/16 11:12:50;;;;;;;6.32;3.85;;;27.40;67.90;;;;;;5033393;28;20108;-64
2023/06/16 11:15:16;;;;;;;4.57;3.00;;;27.30;66.00;;;;;;5040338;28;20163;-65
2023/06/16 11:17:49;;;;;;;8.23;3.83;;;27.30;66.20;;;;;;5043182;28;20520;-64
2023/06/16 11:20:15;;;;;;;9.10;3.78;;;27.30;64.20;;;;;;5045658;28;20040;-64
2023/06/16 11:22:44;;;;;;;5.95;3.58;;;27.40;64.20;;;;;;5039181;28;20066;-63
2023/06/16 11:25:10;;;;;;;8.63;3.88;;;27.50;73.40;;;;;;5040232;28;20026;-62
2023/06/16 11:27:37;;;;;;;4.82;3.88;;;27.30;67.10;;;;;;5035940;28;20142;-63
2023/06/16 11:30:05;;;;;;;8.90;3.80;;;27.50;63.40;;;;;;5038669;28;20567;-63
2023/06/16 11:32:34;;;;;;;6.13;3.70;;;27.60;65.70;;;;;;5034097;28;20036;-64
2023/06/16 11:35:01;;;;;;;8.15;3.70;;;27.90;61.60;;;;;;5036282;28;20029;-64
2023/06/16 11:37:51;;;;;;;9.68;4.53;;;28.00;60.70;;;;;;5037449;28;20111;-64
2023/06/16 11:40:26;;;;;;;4.28;3.60;;;28.10;59.40;;;;;;5032049;28;20040;-64
2023/06/16 11:42:56;;;;;;;8.90;3.38;;;28.30;60.40;;;;;;5038219;28;20083;-64
2023/06/16 11:45:22;;;;;;;6.38;3.35;;;28.20;58.60;;;;;;5035969;28;20079;-64
2023/06/16 11:47:48;;;;;;;6.38;3.70;;;28.10;58.40;;;;;;5039693;28;20055;-64
2023/06/16 11:50:17;;;;;;;6.43;4.03;;;28.20;58.10;;;;;;5036416;28;20749;-64
2023/06/16 11:52:45;;;;;;;6.45;4.18;;;28.50;60.10;;;;;;5031389;28;20042;-64
2023/06/16 11:55:11;;;;;;;5.13;3.92;;;28.70;61.20;;;;;;5039843;28;20117;-64
2023/06/16 11:57:37;;;;;;;9.38;3.83;;;29.10;56.70;;;;;;5032530;28;20029;-64
2023/06/16 12:00:04;;;;;;;7.13;3.65;;;29.10;56.60;;;;;;5035183;28;20045;-63
2023/06/16 12:02:30;;;;;;;4.22;3.38;;;28.80;62.00;;;;;;5039661;28;20028;-64
2023/06/16 12:04:56;;;;;;;6.45;3.85;;;28.80;60.80;;;;;;5037331;28;20047;-64
2023/06/16 12:07:23;;;;;;;5.82;3.92;;;29.00;56.30;;;;;;5041709;28;20100;-63
2023/06/16 12:09:55;;;;;;;4.85;3.60;;;28.80;57.20;;;;;;5044476;28;20129;-64
2023/06/16 12:12:21;;;;;;;5.82;3.83;;;28.70;56.10;;;;;;5039916;28;20021;-65
2023/06/16 12:14:46;;;;;;;9.30;3.75;;;28.70;55.50;;;;;;5037357;28;20509;-65
2023/06/16 12:17:12;;;;;;;7.55;3.70;;;28.80;55.40;;;;;;5042784;28;20418;-64
2023/06/16 12:19:38;;;;;;;8.40;3.67;;;28.70;62.00;;;;;;5037457;28;20049;-63
2023/06/16 12:22:04;;;;;;;10.27;4.40;;;28.60;59.10;;;;;;5036943;28;20023;-64
2023/06/16 12:24:31;;;;;;;7.53;4.18;;;28.90;58.10;;;;;;5041307;28;20049;-63
2023/06/16 12:26:57;;;;;;;8.02;4.05;;;29.30;56.70;;;;;;5032515;28;20092;-64
2023/06/16 12:29:26;;;;;;;7.45;3.65;;;29.60;55.50;;;;;;5036182;28;20025;-65
2023/06/16 12:32:00;;;;;;;6.55;4.13;;;29.40;54.00;;;;;;5031891;28;20032;-64
2023/06/16 12:34:30;;;;;;;6.97;4.13;;;29.40;55.60;;;;;;5037767;28;20428;-64
2023/06/16 12:37:07;;;;;;;5.63;4.03;;;29.70;56.20;;;;;;5032338;28;20227;-66
2023/06/16 12:39:37;;;;;;;9.85;4.43;;;30.00;54.80;;;;;;5030392;28;20379;-63
2023/06/16 12:42:04;;;;;;;7.18;4.47;;;29.70;56.30;;;;;;5037758;28;20407;-63